sensor_id;sensor_type;location;lat;lon;timestamp;P1;durP1;ratioP1;P2;durP2;ratioP2
17449;SDS011;8842;51.244;7.102;2024-03-08T00:02:49;10.97;;;10.20;;
17449;SDS011;8842;51.244;7.102;2024-03-08T00:07:53;12.90;;;11.70;;
17449;SDS011;8842;51.244;7.102;2024-03-08T00:12:58;11.97;;;10.83;;
17449;SDS011;8842;51.244;7.102;2024-03-08T00:18:10;11.67;;;10.77;;
17449;SDS011;8842;51.244;7.102;2024-03-08T00:23:14;13.23;;;10.33;;
17449;SDS011;8842;51.244;7.102;2024-03-08T00:28:26;14.67;;;13.17;;
17449;SDS011;8842;51.244;7.102;2024-03-08T00:33:30;12.27;;;11.03;;
17449;SDS011;8842;51.244;7.102;2024-03-08T00:38:41;12.33;;;11.33;;
17449;SDS011;8842;51.244;7.102;2024-03-08T00:43:46;11.87;;;11.03;;
17449;SDS011;8842;51.244;7.102;2024-03-08T00:48:57;10.30;;;9.47;;
17449;SDS011;8842;51.244;7.102;2024-03-08T00:54:01;11.20;;;10.30;;
17449;SDS011;8842;51.244;7.102;2024-03-08T00:59:07;9.57;;;9.00;;
17449;SDS011;8842;51.244;7.102;2024-03-08T01:04:18;11.03;;;10.23;;
17449;SDS011;8842;51.244;7.102;2024-03-08T01:09:24;10.43;;;9.60;;
17449;SDS011;8842;51.244;7.102;2024-03-08T01:14:29;9.57;;;9.07;;
17449;SDS011;8842;51.244;7.102;2024-03-08T01:19:33;11.17;;;10.50;;
17449;SDS011;8842;51.244;7.102;2024-03-08T01:24:37;12.10;;;10.73;;
17449;SDS011;8842;51.244;7.102;2024-03-08T01:29:49;10.43;;;9.83;;
17449;SDS011;8842;51.244;7.102;2024-03-08T01:34:53;11.17;;;10.37;;
17449;SDS011;8842;51.244;7.102;2024-03-08T01:40:06;10.10;;;9.50;;
17449;SDS011;8842;51.244;7.102;2024-03-08T01:45:11;12.07;;;10.57;;
17449;SDS011;8842;51.244;7.102;2024-03-08T01:50:15;10.90;;;10.20;;
17449;SDS011;8842;51.244;7.102;2024-03-08T01:55:20;9.13;;;8.63;;
17449;SDS011;8842;51.244;7.102;2024-03-08T02:00:24;13.13;;;11.97;;
17449;SDS011;8842;51.244;7.102;2024-03-08T02:05:36;11.67;;;10.67;;
17449;SDS011;8842;51.244;7.102;2024-03-08T02:10:41;10.10;;;9.50;;
17449;SDS011;8842;51.244;7.102;2024-03-08T02:15:50;12.53;;;11.53;;
17449;SDS011;8842;51.244;7.102;2024-03-08T02:20:55;9.07;;;8.63;;
17449;SDS011;8842;51.244;7.102;2024-03-08T02:31:10;9.47;;;8.97;;
17449;SDS011;8842;51.244;7.102;2024-03-08T02:36:15;10.83;;;10.23;;
17449;SDS011;8842;51.244;7.102;2024-03-08T02:41:26;11.17;;;10.10;;
17449;SDS011;8842;51.244;7.102;2024-03-08T02:46:30;12.13;;;10.97;;
17449;SDS011;8842;51.244;7.102;2024-03-08T02:56:45;11.80;;;10.87;;
17449;SDS011;8842;51.244;7.102;2024-03-08T03:01:49;11.33;;;10.37;;
17449;SDS011;8842;51.244;7.102;2024-03-08T03:06:54;10.87;;;10.13;;
17449;SDS011;8842;51.244;7.102;2024-03-08T03:12:07;11.20;;;10.40;;
17449;SDS011;8842;51.244;7.102;2024-03-08T03:17:12;14.53;;;13.03;;
17449;SDS011;8842;51.244;7.102;2024-03-08T03:22:32;11.00;;;10.23;;
17449;SDS011;8842;51.244;7.102;2024-03-08T03:27:37;15.13;;;13.63;;
17449;SDS011;8842;51.244;7.102;2024-03-08T03:32:49;9.80;;;9.20;;
17449;SDS011;8842;51.244;7.102;2024-03-08T03:37:53;9.80;;;9.20;;
17449;SDS011;8842;51.244;7.102;2024-03-08T03:43:05;12.80;;;11.73;;
17449;SDS011;8842;51.244;7.102;2024-03-08T03:48:10;10.90;;;9.93;;
17449;SDS011;8842;51.244;7.102;2024-03-08T03:53:14;12.50;;;11.23;;
17449;SDS011;8842;51.244;7.102;2024-03-08T03:58:18;12.13;;;11.23;;
17449;SDS011;8842;51.244;7.102;2024-03-08T04:03:24;11.77;;;11.07;;
17449;SDS011;8842;51.244;7.102;2024-03-08T04:08:39;13.33;;;12.23;;
17449;SDS011;8842;51.244;7.102;2024-03-08T04:13:43;14.63;;;13.23;;
17449;SDS011;8842;51.244;7.102;2024-03-08T04:18:55;20.40;;;14.77;;
17449;SDS011;8842;51.244;7.102;2024-03-08T04:23:59;12.73;;;11.63;;
17449;SDS011;8842;51.244;7.102;2024-03-08T04:29:04;17.70;;;16.00;;
17449;SDS011;8842;51.244;7.102;2024-03-08T04:34:15;13.03;;;12.03;;
17449;SDS011;8842;51.244;7.102;2024-03-08T04:39:19;15.00;;;13.50;;
17449;SDS011;8842;51.244;7.102;2024-03-08T04:44:31;14.63;;;13.33;;
17449;SDS011;8842;51.244;7.102;2024-03-08T04:49:36;13.27;;;12.30;;
17449;SDS011;8842;51.244;7.102;2024-03-08T04:54:47;14.77;;;13.30;;
17449;SDS011;8842;51.244;7.102;2024-03-08T04:59:52;14.73;;;13.30;;
17449;SDS011;8842;51.244;7.102;2024-03-08T05:05:06;26.00;;;16.23;;
17449;SDS011;8842;51.244;7.102;2024-03-08T05:10:11;15.13;;;13.87;;
17449;SDS011;8842;51.244;7.102;2024-03-08T05:15:25;18.03;;;16.27;;
17449;SDS011;8842;51.244;7.102;2024-03-08T05:20:29;17.97;;;15.90;;
17449;SDS011;8842;51.244;7.102;2024-03-08T05:25:33;16.37;;;15.03;;
17449;SDS011;8842;51.244;7.102;2024-03-08T05:30:48;15.67;;;14.07;;
17449;SDS011;8842;51.244;7.102;2024-03-08T05:35:52;17.40;;;15.67;;
17449;SDS011;8842;51.244;7.102;2024-03-08T05:41:06;14.73;;;13.50;;
17449;SDS011;8842;51.244;7.102;2024-03-08T05:46:10;17.20;;;15.50;;
17449;SDS011;8842;51.244;7.102;2024-03-08T05:51:23;15.33;;;14.03;;
17449;SDS011;8842;51.244;7.102;2024-03-08T05:56:29;18.93;;;15.97;;
17449;SDS011;8842;51.244;7.102;2024-03-08T06:01:41;17.53;;;16.00;;
17449;SDS011;8842;51.244;7.102;2024-03-08T06:06:46;17.50;;;16.10;;
17449;SDS011;8842;51.244;7.102;2024-03-08T06:11:50;15.10;;;14.00;;
17449;SDS011;8842;51.244;7.102;2024-03-08T06:16:54;16.33;;;14.97;;
17449;SDS011;8842;51.244;7.102;2024-03-08T06:22:06;14.23;;;13.23;;
17449;SDS011;8842;51.244;7.102;2024-03-08T06:27:11;16.30;;;13.77;;
17449;SDS011;8842;51.244;7.102;2024-03-08T06:32:16;12.03;;;11.33;;
17449;SDS011;8842;51.244;7.102;2024-03-08T06:42:32;11.27;;;10.67;;
17449;SDS011;8842;51.244;7.102;2024-03-08T06:47:37;13.37;;;12.47;;
17449;SDS011;8842;51.244;7.102;2024-03-08T06:52:51;13.63;;;12.60;;
17449;SDS011;8842;51.244;7.102;2024-03-08T06:57:56;14.37;;;12.73;;
17449;SDS011;8842;51.244;7.102;2024-03-08T07:03:00;13.13;;;12.03;;
17449;SDS011;8842;51.244;7.102;2024-03-08T07:08:05;11.90;;;11.20;;
17449;SDS011;8842;51.244;7.102;2024-03-08T07:13:09;14.57;;;13.23;;
17449;SDS011;8842;51.244;7.102;2024-03-08T07:18:14;13.03;;;12.23;;
17449;SDS011;8842;51.244;7.102;2024-03-08T07:23:18;13.90;;;12.90;;
17449;SDS011;8842;51.244;7.102;2024-03-08T07:28:29;13.77;;;12.43;;
17449;SDS011;8842;51.244;7.102;2024-03-08T07:33:33;13.97;;;12.63;;
17449;SDS011;8842;51.244;7.102;2024-03-08T07:38:45;11.57;;;10.97;;
17449;SDS011;8842;51.244;7.102;2024-03-08T07:43:49;13.27;;;12.00;;
17449;SDS011;8842;51.244;7.102;2024-03-08T07:49:01;11.37;;;10.67;;
17449;SDS011;8842;51.244;7.102;2024-03-08T07:54:05;12.63;;;11.53;;
17449;SDS011;8842;51.244;7.102;2024-03-08T07:59:17;11.50;;;10.70;;
17449;SDS011;8842;51.244;7.102;2024-03-08T08:04:21;18.20;;;13.43;;
17449;SDS011;8842;51.244;7.102;2024-03-08T08:09:30;12.70;;;11.63;;
17449;SDS011;8842;51.244;7.102;2024-03-08T08:14:36;19.47;;;15.33;;
17449;SDS011;8842;51.244;7.102;2024-03-08T08:19:41;11.20;;;10.23;;
17449;SDS011;8842;51.244;7.102;2024-03-08T08:24:53;11.00;;;10.30;;
17449;SDS011;8842;51.244;7.102;2024-03-08T08:29:57;13.43;;;12.33;;
17449;SDS011;8842;51.244;7.102;2024-03-08T08:35:02;12.60;;;11.50;;
17449;SDS011;8842;51.244;7.102;2024-03-08T08:40:08;15.50;;;14.03;;
17449;SDS011;8842;51.244;7.102;2024-03-08T08:45:13;14.87;;;13.60;;
17449;SDS011;8842;51.244;7.102;2024-03-08T08:50:19;14.93;;;13.47;;
17449;SDS011;8842;51.244;7.102;2024-03-08T08:55:25;15.90;;;14.40;;
17449;SDS011;8842;51.244;7.102;2024-03-08T09:00:29;13.83;;;11.33;;
17449;SDS011;8842;51.244;7.102;2024-03-08T09:05:34;11.30;;;10.47;;
17449;SDS011;8842;51.244;7.102;2024-03-08T09:10:49;19.43;;;14.67;;
17449;SDS011;8842;51.244;7.102;2024-03-08T09:15:53;10.83;;;9.87;;
17449;SDS011;8842;51.244;7.102;2024-03-08T09:21:05;15.47;;;13.90;;
17449;SDS011;8842;51.244;7.102;2024-03-08T09:26:11;11.20;;;10.40;;
17449;SDS011;8842;51.244;7.102;2024-03-08T09:31:15;12.23;;;11.10;;
17449;SDS011;8842;51.244;7.102;2024-03-08T09:36:19;14.73;;;13.27;;
17449;SDS011;8842;51.244;7.102;2024-03-08T09:41:23;13.60;;;12.30;;
17449;SDS011;8842;51.244;7.102;2024-03-08T09:46:35;14.73;;;13.27;;
17449;SDS011;8842;51.244;7.102;2024-03-08T09:51:40;11.07;;;10.27;;
17449;SDS011;8842;51.244;7.102;2024-03-08T09:56:51;14.03;;;11.93;;
17449;SDS011;8842;51.244;7.102;2024-03-08T10:01:56;15.70;;;13.07;;
17449;SDS011;8842;51.244;7.102;2024-03-08T10:07:10;16.90;;;12.40;;
17449;SDS011;8842;51.244;7.102;2024-03-08T10:12:15;12.37;;;11.20;;
17449;SDS011;8842;51.244;7.102;2024-03-08T10:22:30;10.33;;;9.73;;
17449;SDS011;8842;51.244;7.102;2024-03-08T10:27:35;15.63;;;13.50;;
17449;SDS011;8842;51.244;7.102;2024-03-08T10:32:39;14.50;;;13.10;;
17449;SDS011;8842;51.244;7.102;2024-03-08T10:37:53;15.83;;;14.23;;
17449;SDS011;8842;51.244;7.102;2024-03-08T10:43:01;11.10;;;10.40;;
17449;SDS011;8842;51.244;7.102;2024-03-08T10:48:10;11.83;;;10.90;;
17449;SDS011;8842;51.244;7.102;2024-03-08T10:53:29;11.47;;;10.67;;
17449;SDS011;8842;51.244;7.102;2024-03-08T10:58:33;10.37;;;9.77;;
17449;SDS011;8842;51.244;7.102;2024-03-08T11:03:45;12.87;;;11.77;;
17449;SDS011;8842;51.244;7.102;2024-03-08T11:08:57;11.60;;;10.70;;
17449;SDS011;8842;51.244;7.102;2024-03-08T11:14:02;12.87;;;11.77;;
17449;SDS011;8842;51.244;7.102;2024-03-08T11:19:22;11.47;;;10.67;;
17449;SDS011;8842;51.244;7.102;2024-03-08T11:24:39;10.50;;;9.80;;
17449;SDS011;8842;51.244;7.102;2024-03-08T11:30:00;12.77;;;11.67;;
17449;SDS011;8842;51.244;7.102;2024-03-08T11:35:17;14.13;;;12.67;;
17449;SDS011;8842;51.244;7.102;2024-03-08T11:40:29;13.83;;;12.47;;
17449;SDS011;8842;51.244;7.102;2024-03-08T11:45:36;12.47;;;11.47;;
17449;SDS011;8842;51.244;7.102;2024-03-08T11:50:40;10.57;;;9.97;;
17449;SDS011;8842;51.244;7.102;2024-03-08T11:55:46;10.23;;;9.70;;
17449;SDS011;8842;51.244;7.102;2024-03-08T12:01:02;9.83;;;9.23;;
17449;SDS011;8842;51.244;7.102;2024-03-08T12:06:08;10.57;;;9.90;;
17449;SDS011;8842;51.244;7.102;2024-03-08T12:11:12;10.83;;;10.13;;
17449;SDS011;8842;51.244;7.102;2024-03-08T12:16:17;11.60;;;10.73;;
17449;SDS011;8842;51.244;7.102;2024-03-08T12:21:21;13.10;;;11.73;;
17449;SDS011;8842;51.244;7.102;2024-03-08T12:26:27;10.20;;;9.40;;
17449;SDS011;8842;51.244;7.102;2024-03-08T12:31:31;10.27;;;9.50;;
17449;SDS011;8842;51.244;7.102;2024-03-08T12:36:57;10.57;;;9.77;;
17449;SDS011;8842;51.244;7.102;2024-03-08T12:42:02;9.80;;;9.30;;
17449;SDS011;8842;51.244;7.102;2024-03-08T12:47:06;12.43;;;11.20;;
17449;SDS011;8842;51.244;7.102;2024-03-08T12:52:11;12.07;;;11.07;;
17449;SDS011;8842;51.244;7.102;2024-03-08T12:57:15;10.40;;;9.73;;
17449;SDS011;8842;51.244;7.102;2024-03-08T13:02:19;10.10;;;9.43;;
17449;SDS011;8842;51.244;7.102;2024-03-08T13:07:23;9.87;;;8.90;;
17449;SDS011;8842;51.244;7.102;2024-03-08T13:12:35;9.77;;;9.20;;
17449;SDS011;8842;51.244;7.102;2024-03-08T13:17:40;11.93;;;10.83;;
17449;SDS011;8842;51.244;7.102;2024-03-08T13:22:55;11.03;;;10.20;;
17449;SDS011;8842;51.244;7.102;2024-03-08T13:27:59;11.83;;;10.63;;
17449;SDS011;8842;51.244;7.102;2024-03-08T13:33:11;9.30;;;8.80;;
17449;SDS011;8842;51.244;7.102;2024-03-08T13:38:16;11.37;;;10.37;;
17449;SDS011;8842;51.244;7.102;2024-03-08T13:43:22;11.10;;;9.33;;
17449;SDS011;8842;51.244;7.102;2024-03-08T13:48:27;12.33;;;11.23;;
17449;SDS011;8842;51.244;7.102;2024-03-08T13:53:31;10.53;;;9.60;;
17449;SDS011;8842;51.244;7.102;2024-03-08T13:58:35;10.87;;;9.87;;
17449;SDS011;8842;51.244;7.102;2024-03-08T14:03:40;11.77;;;10.93;;
17449;SDS011;8842;51.244;7.102;2024-03-08T14:08:44;10.03;;;9.43;;
17449;SDS011;8842;51.244;7.102;2024-03-08T14:13:56;10.63;;;9.73;;
17449;SDS011;8842;51.244;7.102;2024-03-08T14:24:11;12.10;;;11.07;;
17449;SDS011;8842;51.244;7.102;2024-03-08T14:29:15;17.30;;;11.30;;
17449;SDS011;8842;51.244;7.102;2024-03-08T14:34:20;16.13;;;13.83;;
17449;SDS011;8842;51.244;7.102;2024-03-08T14:39:26;11.83;;;10.93;;
17449;SDS011;8842;51.244;7.102;2024-03-08T14:44:38;10.50;;;9.87;;
17449;SDS011;8842;51.244;7.102;2024-03-08T14:49:42;10.73;;;10.13;;
17449;SDS011;8842;51.244;7.102;2024-03-08T14:54:46;11.57;;;10.77;;
17449;SDS011;8842;51.244;7.102;2024-03-08T14:59:58;11.60;;;10.50;;
17449;SDS011;8842;51.244;7.102;2024-03-08T15:05:05;11.30;;;10.50;;
17449;SDS011;8842;51.244;7.102;2024-03-08T15:15:26;12.00;;;10.90;;
17449;SDS011;8842;51.244;7.102;2024-03-08T15:20:33;10.97;;;9.97;;
17449;SDS011;8842;51.244;7.102;2024-03-08T15:25:37;13.50;;;10.07;;
17449;SDS011;8842;51.244;7.102;2024-03-08T15:30:44;11.60;;;10.60;;
17449;SDS011;8842;51.244;7.102;2024-03-08T15:35:56;10.47;;;9.47;;
17449;SDS011;8842;51.244;7.102;2024-03-08T15:41:03;10.60;;;9.83;;
17449;SDS011;8842;51.244;7.102;2024-03-08T15:46:16;11.07;;;10.17;;
17449;SDS011;8842;51.244;7.102;2024-03-08T15:51:23;12.43;;;11.30;;
17449;SDS011;8842;51.244;7.102;2024-03-08T15:56:28;10.40;;;9.80;;
17449;SDS011;8842;51.244;7.102;2024-03-08T16:01:34;11.00;;;10.20;;
17449;SDS011;8842;51.244;7.102;2024-03-08T16:06:38;9.83;;;9.33;;
17449;SDS011;8842;51.244;7.102;2024-03-08T16:11:43;12.60;;;11.50;;
17449;SDS011;8842;51.244;7.102;2024-03-08T16:16:55;9.63;;;9.03;;
17449;SDS011;8842;51.244;7.102;2024-03-08T16:21:59;10.47;;;9.73;;
17449;SDS011;8842;51.244;7.102;2024-03-08T16:27:11;12.23;;;11.33;;
17449;SDS011;8842;51.244;7.102;2024-03-08T16:32:15;9.80;;;9.10;;
17449;SDS011;8842;51.244;7.102;2024-03-08T16:37:21;9.47;;;8.90;;
17449;SDS011;8842;51.244;7.102;2024-03-08T16:42:27;11.37;;;10.37;;
17449;SDS011;8842;51.244;7.102;2024-03-08T16:47:39;10.27;;;9.57;;
17449;SDS011;8842;51.244;7.102;2024-03-08T16:52:43;9.33;;;8.77;;
17449;SDS011;8842;51.244;7.102;2024-03-08T16:57:47;9.03;;;8.53;;
17449;SDS011;8842;51.244;7.102;2024-03-08T17:02:52;9.40;;;8.90;;
17449;SDS011;8842;51.244;7.102;2024-03-08T17:08:05;8.63;;;8.23;;
17449;SDS011;8842;51.244;7.102;2024-03-08T17:13:11;10.60;;;8.37;;
17449;SDS011;8842;51.244;7.102;2024-03-08T17:18:17;8.37;;;7.87;;
17449;SDS011;8842;51.244;7.102;2024-03-08T17:23:21;7.60;;;7.20;;
17449;SDS011;8842;51.244;7.102;2024-03-08T17:28:26;8.27;;;7.87;;
17449;SDS011;8842;51.244;7.102;2024-03-08T17:33:30;7.80;;;7.40;;
17449;SDS011;8842;51.244;7.102;2024-03-08T17:38:41;8.80;;;8.30;;
17449;SDS011;8842;51.244;7.102;2024-03-08T17:43:48;11.43;;;8.83;;
17449;SDS011;8842;51.244;7.102;2024-03-08T17:48:53;9.20;;;8.70;;
17449;SDS011;8842;51.244;7.102;2024-03-08T17:53:58;9.67;;;8.90;;
17449;SDS011;8842;51.244;7.102;2024-03-08T17:59:04;9.80;;;9.20;;
17449;SDS011;8842;51.244;7.102;2024-03-08T18:04:16;10.00;;;9.50;;
17449;SDS011;8842;51.244;7.102;2024-03-08T18:09:20;10.33;;;9.70;;
17449;SDS011;8842;51.244;7.102;2024-03-08T18:14:26;9.53;;;9.03;;
17449;SDS011;8842;51.244;7.102;2024-03-08T18:19:30;9.30;;;8.80;;
17449;SDS011;8842;51.244;7.102;2024-03-08T18:24:42;9.53;;;9.00;;
17449;SDS011;8842;51.244;7.102;2024-03-08T18:29:48;9.40;;;8.90;;
17449;SDS011;8842;51.244;7.102;2024-03-08T18:34:53;13.90;;;9.53;;
17449;SDS011;8842;51.244;7.102;2024-03-08T18:40:05;8.90;;;8.50;;
17449;SDS011;8842;51.244;7.102;2024-03-08T18:45:15;8.80;;;8.40;;
17449;SDS011;8842;51.244;7.102;2024-03-08T18:50:20;9.60;;;8.97;;
17449;SDS011;8842;51.244;7.102;2024-03-08T18:55:26;9.40;;;8.90;;
17449;SDS011;8842;51.244;7.102;2024-03-08T19:00:31;9.13;;;8.63;;
17449;SDS011;8842;51.244;7.102;2024-03-08T19:05:43;9.93;;;9.23;;
17449;SDS011;8842;51.244;7.102;2024-03-08T19:10:49;9.17;;;8.67;;
17449;SDS011;8842;51.244;7.102;2024-03-08T19:15:55;19.07;;;10.10;;
17449;SDS011;8842;51.244;7.102;2024-03-08T19:20:59;8.83;;;8.07;;
17449;SDS011;8842;51.244;7.102;2024-03-08T19:26:03;9.50;;;8.70;;
17449;SDS011;8842;51.244;7.102;2024-03-08T19:31:09;11.23;;;10.43;;
17449;SDS011;8842;51.244;7.102;2024-03-08T19:36:21;9.13;;;8.63;;
17449;SDS011;8842;51.244;7.102;2024-03-08T19:41:25;10.03;;;9.33;;
17449;SDS011;8842;51.244;7.102;2024-03-08T19:46:31;10.27;;;9.20;;
17449;SDS011;8842;51.244;7.102;2024-03-08T19:51:37;10.13;;;9.47;;
17449;SDS011;8842;51.244;7.102;2024-03-08T19:56:41;9.80;;;9.20;;
17449;SDS011;8842;51.244;7.102;2024-03-08T20:01:46;10.17;;;9.50;;
17449;SDS011;8842;51.244;7.102;2024-03-08T20:06:51;10.33;;;9.67;;
17449;SDS011;8842;51.244;7.102;2024-03-08T20:11:55;10.37;;;9.77;;
17449;SDS011;8842;51.244;7.102;2024-03-08T20:16:59;11.47;;;10.77;;
17449;SDS011;8842;51.244;7.102;2024-03-08T20:22:05;10.37;;;9.73;;
17449;SDS011;8842;51.244;7.102;2024-03-08T20:27:09;10.57;;;9.90;;
17449;SDS011;8842;51.244;7.102;2024-03-08T20:32:13;9.47;;;8.97;;
17449;SDS011;8842;51.244;7.102;2024-03-08T20:37:19;10.03;;;9.47;;
17449;SDS011;8842;51.244;7.102;2024-03-08T20:42:31;11.33;;;10.53;;
17449;SDS011;8842;51.244;7.102;2024-03-08T20:47:35;10.10;;;9.40;;
17449;SDS011;8842;51.244;7.102;2024-03-08T20:52:42;10.53;;;9.83;;
17449;SDS011;8842;51.244;7.102;2024-03-08T20:57:47;11.33;;;10.40;;
17449;SDS011;8842;51.244;7.102;2024-03-08T21:08:03;11.10;;;10.37;;
17449;SDS011;8842;51.244;7.102;2024-03-08T21:13:08;11.80;;;10.87;;
17449;SDS011;8842;51.244;7.102;2024-03-08T21:18:22;10.20;;;9.60;;
17449;SDS011;8842;51.244;7.102;2024-03-08T21:23:29;9.67;;;9.07;;
17449;SDS011;8842;51.244;7.102;2024-03-08T21:28:34;10.90;;;10.20;;
17449;SDS011;8842;51.244;7.102;2024-03-08T21:33:39;10.97;;;10.03;;
17449;SDS011;8842;51.244;7.102;2024-03-08T21:38:51;11.30;;;10.43;;
17449;SDS011;8842;51.244;7.102;2024-03-08T21:43:55;10.00;;;9.17;;
17449;SDS011;8842;51.244;7.102;2024-03-08T21:49:00;10.00;;;9.37;;
17449;SDS011;8842;51.244;7.102;2024-03-08T21:54:04;9.33;;;8.83;;
17449;SDS011;8842;51.244;7.102;2024-03-08T21:59:09;9.27;;;8.77;;
17449;SDS011;8842;51.244;7.102;2024-03-08T22:04:21;13.73;;;10.70;;
17449;SDS011;8842;51.244;7.102;2024-03-08T22:09:25;10.57;;;9.93;;
17449;SDS011;8842;51.244;7.102;2024-03-08T22:14:30;11.47;;;10.40;;
17449;SDS011;8842;51.244;7.102;2024-03-08T22:19:36;11.20;;;10.40;;
17449;SDS011;8842;51.244;7.102;2024-03-08T22:24:40;13.10;;;11.87;;
17449;SDS011;8842;51.244;7.102;2024-03-08T22:29:53;11.60;;;10.63;;
17449;SDS011;8842;51.244;7.102;2024-03-08T22:35:07;10.07;;;9.47;;
17449;SDS011;8842;51.244;7.102;2024-03-08T22:40:12;10.90;;;10.00;;
17449;SDS011;8842;51.244;7.102;2024-03-08T22:45:24;9.30;;;8.73;;
17449;SDS011;8842;51.244;7.102;2024-03-08T22:50:30;9.60;;;8.97;;
17449;SDS011;8842;51.244;7.102;2024-03-08T22:55:35;9.47;;;8.97;;
17449;SDS011;8842;51.244;7.102;2024-03-08T23:00:39;10.90;;;10.00;;
17449;SDS011;8842;51.244;7.102;2024-03-08T23:05:48;9.50;;;8.90;;
17449;SDS011;8842;51.244;7.102;2024-03-08T23:10:52;10.20;;;9.53;;
17449;SDS011;8842;51.244;7.102;2024-03-08T23:15:56;10.07;;;9.53;;
17449;SDS011;8842;51.244;7.102;2024-03-08T23:21:03;9.43;;;8.93;;
17449;SDS011;8842;51.244;7.102;2024-03-08T23:26:09;9.37;;;8.87;;
17449;SDS011;8842;51.244;7.102;2024-03-08T23:31:14;10.23;;;9.63;;
17449;SDS011;8842;51.244;7.102;2024-03-08T23:36:18;10.17;;;9.40;;
17449;SDS011;8842;51.244;7.102;2024-03-08T23:41:30;10.77;;;9.90;;
17449;SDS011;8842;51.244;7.102;2024-03-08T23:46:35;10.13;;;9.27;;
17449;SDS011;8842;51.244;7.102;2024-03-08T23:51:39;11.90;;;10.07;;
17449;SDS011;8842;51.244;7.102;2024-03-08T23:56:43;10.83;;;9.87;;
